Main page
METAR-TAF:

METAR-TAF

Airports :

Kuwait City, Kuwait

Kuwait International Airport

latitude: 29-13N, longitude: 047-59E, elevation: 55 m

Current weather observation

The report was made 10 minutes ago, at 09:00 UTC
Wind 14 kt from the North
Temperature 41°C
Humidity 16%
Pressure 1008 hPa
Visibility: 7000 m

METAR: OKBK 230900Z 36014KT 7000 NSC 41/10 Q1008 NOSIG

Time: 12:10 (09:10 UTC)

Forecast

The report was made 4 hours and 25 minutes ago, at 04:45 UTC
Forecast valid from 23 at 06 UTC to 24 at 12 UTC
Wind 10 kt from the North/Northwest with gusts up to 22 kt
Visibility: 7000 m
Temporary
from 23 at 06 UTC to 23 at 17 UTC
Visibility: 3000 m
Blowing dust

TAF: OKBK 230445Z 2306/2412 34010G22KT 7000 NSC TEMPO 2306/2317 3000 BLDU

Weather observations and forecasts of more than 4000 airports (METAR and TAF reports).

The available stations are represented by yellow and red dots on the map.

Hover mouse over dot to see the name of the station.

Then click to see weather observations and forecasts.

To change the map : click on the green buttons with a black cross to zoom in, on the green button with a dash to zoom out, or on the green arrows for adjacent maps.


METAR-TAF: